Time;durP1;ratioP1;P1;durP2;ratioP2;P2;SDS_P1;SDS_P2;PMS_P1;PMS_P2;Temp;Humidity;BMP_temperature;BMP_pressure;BME280_temperature;BME280_humidity;BME280_pressure;Samples;Min_cycle;Max_cycle;Signal;HPM_P1;HPM_P2
2022/03/23 00:02:13;;;;;;;12.05;7.47;;;13.10;44.60;;;;;;5029670;28;20430;-68
2022/03/23 00:04:39;;;;;;;10.98;7.07;;;13.00;44.80;;;;;;5030178;28;20034;-68
2022/03/23 00:07:05;;;;;;;12.23;8.20;;;12.90;45.10;;;;;;5028032;28;20086;-67
2022/03/23 00:09:30;;;;;;;11.40;7.75;;;12.80;45.20;;;;;;5034166;28;20387;-67
2022/03/23 00:11:56;;;;;;;13.52;8.05;;;12.70;45.50;;;;;;5030672;28;20043;-67
2022/03/23 00:14:21;;;;;;;13.95;7.55;;;12.60;45.60;;;;;;5029237;28;20206;-68
2022/03/23 00:16:47;;;;;;;13.98;7.88;;;12.50;45.80;;;;;;5031527;28;20029;-68
2022/03/23 00:19:13;;;;;;;13.40;8.05;;;12.40;46.10;;;;;;5031888;28;20037;-68
2022/03/23 00:21:41;;;;;;;13.50;7.63;;;12.30;46.50;;;;;;5022238;28;20021;-66
2022/03/23 00:24:06;;;;;;;12.05;7.43;;;12.30;46.60;;;;;;5031823;28;20033;-68
2022/03/23 00:26:32;;;;;;;14.15;8.50;;;12.20;46.60;;;;;;5030927;28;20056;-68
2022/03/23 00:28:58;;;;;;;13.52;7.95;;;12.10;46.60;;;;;;5028603;28;20021;-68
2022/03/23 00:31:23;;;;;;;13.05;8.00;;;12.10;46.70;;;;;;5030935;28;20380;-69
2022/03/23 00:33:50;;;;;;;13.30;7.68;;;12.10;46.80;;;;;;5028984;28;20052;-67
2022/03/23 00:36:16;;;;;;;14.02;7.63;;;12.10;46.90;;;;;;5030086;28;20029;-67
2022/03/23 00:38:42;;;;;;;11.32;7.13;;;12.00;47.00;;;;;;5030558;28;20129;-68
2022/03/23 00:41:08;;;;;;;11.95;7.50;;;11.90;47.20;;;;;;5029321;28;20104;-68
2022/03/23 00:43:34;;;;;;;11.02;6.93;;;11.80;47.30;;;;;;5027893;28;20021;-68
2022/03/23 00:46:00;;;;;;;12.00;7.72;;;11.70;47.50;;;;;;5029511;28;20036;-68
2022/03/23 00:48:25;;;;;;;14.10;7.78;;;11.70;47.30;;;;;;5029889;28;20065;-67
2022/03/23 00:50:51;;;;;;;14.18;7.68;;;11.70;47.20;;;;;;5029961;28;20021;-67
2022/03/23 00:53:18;;;;;;;11.60;7.45;;;11.80;47.20;;;;;;5029847;28;20021;-67
2022/03/23 00:55:43;;;;;;;13.07;8.15;;;11.80;47.00;;;;;;5029700;28;20391;-67
2022/03/23 00:58:09;;;;;;;15.20;9.43;;;11.80;47.20;;;;;;5029949;28;20025;-66
2022/03/23 01:00:35;;;;;;;13.68;8.82;;;11.90;46.30;;;;;;5029148;28;20092;-67
2022/03/23 01:03:02;;;;;;;14.52;9.57;;;12.00;45.70;;;;;;5029325;28;20730;-67
2022/03/23 01:05:27;;;;;;;14.25;9.68;;;12.10;45.30;;;;;;5029563;28;20029;-67
2022/03/23 01:07:53;;;;;;;15.27;10.02;;;12.20;44.80;;;;;;5029527;28;20106;-67
2022/03/23 01:10:19;;;;;;;16.63;10.57;;;12.30;44.50;;;;;;5029175;28;20021;-67
2022/03/23 01:12:46;;;;;;;14.55;9.55;;;12.40;43.90;;;;;;5029640;28;20044;-67
2022/03/23 01:15:14;;;;;;;16.35;9.10;;;12.40;43.80;;;;;;5029663;28;20096;-67
2022/03/23 01:17:39;;;;;;;16.73;9.32;;;12.50;43.60;;;;;;5030783;28;20034;-68
2022/03/23 01:20:08;;;;;;;12.88;8.52;;;12.50;44.20;;;;;;5029841;28;20055;-68
2022/03/23 01:22:34;;;;;;;14.07;9.70;;;12.50;43.40;;;;;;5029013;28;20029;-67
2022/03/23 01:25:00;;;;;;;14.50;9.75;;;12.50;43.20;;;;;;5029543;28;20033;-67
2022/03/23 01:27:25;;;;;;;13.52;9.07;;;12.50;43.00;;;;;;5029639;28;20440;-66
2022/03/23 01:29:52;;;;;;;11.75;8.48;;;12.60;42.90;;;;;;5029860;28;20491;-66
2022/03/23 01:32:18;;;;;;;15.85;10.38;;;12.60;42.80;;;;;;5029478;28;20116;-66
2022/03/23 01:34:44;;;;;;;12.70;8.43;;;12.60;42.40;;;;;;5029254;28;20395;-67
2022/03/23 01:37:09;;;;;;;9.93;7.03;;;12.60;42.40;;;;;;5029950;28;20031;-67
2022/03/23 01:39:35;;;;;;;12.23;8.43;;;12.60;42.30;;;;;;5029536;28;20026;-66
2022/03/23 01:42:00;;;;;;;16.35;10.35;;;12.60;41.90;;;;;;5029583;28;20204;-65
2022/03/23 01:44:26;;;;;;;15.98;10.02;;;12.60;41.50;;;;;;5023335;28;20021;-66
2022/03/23 01:47:13;;;;;;;16.27;9.35;;;12.60;41.20;;;;;;5029899;28;20124;-67
2022/03/23 01:49:47;;;;;;;14.48;9.55;;;12.60;41.10;;;;;;5029541;28;20021;-66
2022/03/23 01:52:16;;;;;;;15.88;9.50;;;12.60;41.10;;;;;;5027860;28;20021;-67
2022/03/23 01:54:42;;;;;;;16.85;10.35;;;12.60;41.00;;;;;;5024761;28;20116;-66
2022/03/23 01:57:10;;;;;;;17.17;10.75;;;12.60;40.90;;;;;;5029529;28;20026;-66
2022/03/23 01:59:36;;;;;;;14.27;10.20;;;12.60;40.70;;;;;;5028388;28;20365;-67
2022/03/23 02:02:03;;;;;;;17.25;10.52;;;12.60;40.40;;;;;;5029205;28;20025;-67
2022/03/23 02:04:29;;;;;;;13.30;8.90;;;12.60;40.20;;;;;;5029298;28;20104;-68
2022/03/23 02:06:54;;;;;;;13.82;9.07;;;12.60;40.20;;;;;;5027546;28;20101;-67
2022/03/23 02:09:20;;;;;;;13.70;9.13;;;12.60;40.20;;;;;;5029217;28;20099;-67
2022/03/23 02:11:47;;;;;;;14.98;9.32;;;12.60;40.20;;;;;;5029204;28;20033;-67
2022/03/23 02:14:13;;;;;;;14.65;10.30;;;12.60;40.10;;;;;;5030381;28;20037;-68
2022/03/23 02:16:39;;;;;;;15.88;10.52;;;12.60;39.80;;;;;;5032161;28;20029;-69
2022/03/23 02:19:05;;;;;;;14.20;9.63;;;12.50;39.70;;;;;;5031931;28;20029;-69
2022/03/23 02:21:31;;;;;;;14.88;10.52;;;12.50;39.50;;;;;;5033956;28;20028;-69
2022/03/23 02:23:57;;;;;;;13.98;9.98;;;12.50;39.20;;;;;;5031398;28;20071;-70
2022/03/23 02:26:24;;;;;;;14.02;8.80;;;12.50;38.90;;;;;;5030691;28;20025;-69
2022/03/23 02:28:50;;;;;;;17.95;10.18;;;12.60;39.00;;;;;;5032233;28;20032;-69
2022/03/23 02:31:16;;;;;;;10.32;7.75;;;12.60;38.60;;;;;;5033489;28;20025;-67
2022/03/23 02:33:42;;;;;;;18.48;12.30;;;12.60;38.90;;;;;;5033095;28;20032;-69
2022/03/23 02:36:07;;;;;;;16.08;10.27;;;12.50;38.80;;;;;;5036211;28;20028;-70
2022/03/23 02:38:33;;;;;;;13.75;9.68;;;12.50;38.70;;;;;;5034443;28;20021;-69
2022/03/23 02:40:58;;;;;;;16.13;10.32;;;12.50;38.60;;;;;;5035420;28;20471;-66
2022/03/23 02:43:24;;;;;;;14.07;10.30;;;12.50;38.40;;;;;;5033062;28;20037;-67
2022/03/23 02:45:49;;;;;;;14.82;9.82;;;12.50;38.40;;;;;;5033005;28;20458;-69
2022/03/23 02:48:16;;;;;;;17.70;9.73;;;12.50;38.50;;;;;;5032389;28;20021;-67
2022/03/23 02:50:41;;;;;;;12.18;8.88;;;12.50;38.60;;;;;;5033970;28;20483;-67
2022/03/23 03:02:26;;;;;;;12.45;8.80;;;12.30;38.70;;;;;;5026115;28;20080;-69
2022/03/23 03:04:52;;;;;;;15.27;10.80;;;12.30;38.90;;;;;;4956061;28;20041;-70
2022/03/23 03:07:18;;;;;;;13.77;9.10;;;12.30;38.90;;;;;;4970495;28;20031;-68
2022/03/23 03:09:44;;;;;;;16.13;10.88;;;12.30;39.10;;;;;;4997939;28;20040;-69
2022/03/23 03:12:11;;;;;;;17.15;10.30;;;12.20;39.00;;;;;;5032985;28;20538;-69
2022/03/23 03:14:37;;;;;;;13.70;9.57;;;12.20;39.00;;;;;;5030562;28;20400;-69
2022/03/23 03:17:03;;;;;;;14.02;9.25;;;12.20;39.10;;;;;;5016189;28;20028;-70
2022/03/23 03:19:29;;;;;;;14.75;9.70;;;12.10;39.20;;;;;;5032188;28;20048;-69
2022/03/23 03:21:54;;;;;;;15.90;11.20;;;12.10;39.30;;;;;;5033531;28;20033;-69
2022/03/23 03:24:20;;;;;;;13.05;9.25;;;12.10;39.40;;;;;;5033724;28;20388;-69
2022/03/23 03:26:46;;;;;;;19.90;11.43;;;12.00;39.40;;;;;;5034603;28;20021;-70
2022/03/23 03:29:12;;;;;;;17.35;11.73;;;12.00;39.60;;;;;;5026199;28;20036;-68
2022/03/23 03:31:38;;;;;;;16.45;10.48;;;12.00;39.70;;;;;;5034554;28;20025;-69
2022/03/23 03:34:03;;;;;;;16.23;10.75;;;12.00;39.80;;;;;;5031533;28;20104;-69
2022/03/23 03:36:29;;;;;;;17.58;11.98;;;11.90;39.80;;;;;;5031602;28;20026;-68
2022/03/23 03:38:54;;;;;;;16.00;10.98;;;11.90;39.90;;;;;;5029924;28;20037;-68
2022/03/23 03:41:20;;;;;;;20.25;10.98;;;11.90;40.00;;;;;;5031627;28;20018;-68
2022/03/23 03:43:46;;;;;;;20.08;12.60;;;11.90;40.00;;;;;;5031344;28;20523;-68
2022/03/23 03:46:11;;;;;;;17.92;11.52;;;11.90;40.10;;;;;;5031333;28;20028;-68
2022/03/23 03:48:39;;;;;;;16.98;10.85;;;11.80;40.10;;;;;;5031528;28;20106;-68
2022/03/23 03:51:06;;;;;;;16.23;10.85;;;11.80;40.10;;;;;;5027932;28;20055;-68
2022/03/23 03:53:32;;;;;;;14.30;10.18;;;11.80;40.20;;;;;;5025900;28;20045;-68
2022/03/23 03:55:57;;;;;;;17.38;11.23;;;11.80;40.20;;;;;;5031152;28;20053;-69
2022/03/23 03:58:23;;;;;;;13.82;9.85;;;11.80;40.30;;;;;;5029976;28;20025;-68
2022/03/23 04:00:49;;;;;;;14.13;9.05;;;11.80;40.40;;;;;;5031093;28;20013;-68
2022/03/23 04:03:14;;;;;;;11.90;7.70;;;11.80;40.50;;;;;;5031217;28;20112;-68
2022/03/23 04:05:40;;;;;;;12.18;7.85;;;11.70;40.60;;;;;;5031108;28;20037;-68
2022/03/23 04:08:06;;;;;;;13.32;9.30;;;11.60;40.70;;;;;;5029572;28;20037;-68
2022/03/23 04:10:32;;;;;;;11.90;8.40;;;11.60;40.80;;;;;;5029484;28;20108;-69
2022/03/23 04:12:57;;;;;;;17.13;11.50;;;11.50;41.00;;;;;;5030590;28;20492;-71
2022/03/23 04:15:25;;;;;;;13.57;8.40;;;11.40;41.00;;;;;;5030623;28;20018;-71
2022/03/23 04:17:51;;;;;;;13.80;8.38;;;11.40;41.20;;;;;;5030580;28;20515;-70
2022/03/23 04:20:17;;;;;;;13.75;9.13;;;11.30;41.40;;;;;;5030810;28;20026;-71
2022/03/23 04:22:43;;;;;;;11.82;8.38;;;11.30;41.40;;;;;;5030803;28;20552;-70
2022/03/23 04:25:11;;;;;;;14.45;9.52;;;11.20;41.40;;;;;;5029861;28;20029;-70
2022/03/23 04:27:55;;;;;;;15.00;10.32;;;11.20;41.40;;;;;;5030250;28;20037;-68
2022/03/23 04:30:23;;;;;;;16.83;11.13;;;11.10;41.40;;;;;;5030276;28;20079;-68
2022/03/23 04:32:50;;;;;;;19.17;9.88;;;11.10;41.30;;;;;;5028655;28;20022;-68
2022/03/23 04:35:16;;;;;;;16.48;11.10;;;11.10;41.30;;;;;;5030545;28;20032;-69
2022/03/23 04:37:43;;;;;;;23.27;15.23;;;11.10;41.20;;;;;;5029310;28;20026;-69
2022/03/23 04:40:10;;;;;;;21.33;14.13;;;11.10;41.20;;;;;;5030029;28;20396;-68
2022/03/23 04:42:37;;;;;;;14.63;10.65;;;11.10;41.10;;;;;;5029595;28;20036;-68
2022/03/23 04:45:06;;;;;;;20.13;12.10;;;11.10;41.10;;;;;;5029661;28;20030;-68
2022/03/23 04:47:33;;;;;;;19.70;13.23;;;11.10;41.20;;;;;;5027995;28;20033;-69
2022/03/23 04:49:59;;;;;;;18.58;11.82;;;11.10;41.30;;;;;;5030158;28;20029;-70
2022/03/23 04:52:25;;;;;;;19.30;12.30;;;11.00;41.40;;;;;;5030649;28;20099;-70
2022/03/23 04:54:56;;;;;;;16.20;11.20;;;11.00;41.50;;;;;;5030421;28;20476;-70
2022/03/23 04:57:28;;;;;;;20.77;13.00;;;10.90;41.60;;;;;;5029347;28;20450;-68
2022/03/23 04:59:54;;;;;;;19.85;12.27;;;11.00;41.70;;;;;;5030166;28;20048;-69
2022/03/23 05:02:20;;;;;;;22.48;13.50;;;10.90;41.80;;;;;;5030826;28;20059;-69
2022/03/23 05:04:46;;;;;;;19.92;12.98;;;10.90;42.10;;;;;;5030173;28;20033;-69
2022/03/23 05:07:12;;;;;;;19.27;12.73;;;10.80;42.10;;;;;;5028832;28;20504;-68
2022/03/23 05:09:38;;;;;;;18.85;12.10;;;10.80;42.20;;;;;;5029822;28;20052;-69
2022/03/23 05:12:04;;;;;;;19.63;12.05;;;10.80;42.40;;;;;;5027797;28;20022;-67
2022/03/23 05:14:30;;;;;;;20.27;12.90;;;10.70;42.50;;;;;;5029264;28;20030;-68
2022/03/23 05:16:55;;;;;;;20.95;12.77;;;10.70;42.70;;;;;;5029951;28;20083;-67
2022/03/23 05:19:21;;;;;;;20.52;12.88;;;10.70;42.70;;;;;;5028242;28;20040;-67
2022/03/23 05:21:47;;;;;;;21.65;13.57;;;10.70;42.90;;;;;;5028642;28;20033;-67
2022/03/23 05:24:13;;;;;;;20.30;13.30;;;10.70;43.00;;;;;;5031768;28;20028;-69
2022/03/23 05:26:38;;;;;;;20.13;13.10;;;10.60;43.10;;;;;;5034054;28;20029;-69
2022/03/23 05:29:04;;;;;;;22.58;13.60;;;10.60;43.30;;;;;;5031272;28;20041;-68
2022/03/23 05:31:29;;;;;;;18.08;11.43;;;10.50;43.30;;;;;;5030617;28;20608;-70
2022/03/23 05:33:55;;;;;;;18.98;12.93;;;10.50;43.40;;;;;;5029695;28;20034;-69
2022/03/23 05:36:20;;;;;;;19.90;12.65;;;10.50;43.50;;;;;;5031840;28;20033;-67
2022/03/23 05:38:46;;;;;;;21.02;13.27;;;10.50;43.70;;;;;;5032644;28;20025;-69
2022/03/23 05:41:11;;;;;;;20.15;14.05;;;10.50;43.80;;;;;;5027167;28;20032;-69
2022/03/23 05:43:37;;;;;;;20.27;13.52;;;10.40;43.80;;;;;;5025369;28;20034;-68
2022/03/23 05:46:02;;;;;;;18.15;11.38;;;10.40;43.90;;;;;;5029789;28;20025;-69
2022/03/23 05:48:28;;;;;;;17.42;11.68;;;10.40;44.00;;;;;;5030588;28;20018;-69
2022/03/23 05:50:53;;;;;;;20.90;13.30;;;10.40;44.10;;;;;;5029635;28;20029;-69
2022/03/23 05:53:19;;;;;;;17.23;12.05;;;10.40;44.20;;;;;;5029526;28;20028;-69
2022/03/23 05:55:44;;;;;;;18.98;12.32;;;10.40;44.30;;;;;;5027967;28;20495;-69
2022/03/23 05:58:10;;;;;;;19.77;13.13;;;10.40;44.40;;;;;;5030445;28;20029;-69
2022/03/23 06:00:36;;;;;;;22.33;14.68;;;10.30;44.40;;;;;;5046596;28;20025;-71
2022/03/23 06:03:01;;;;;;;18.48;12.75;;;10.40;44.60;;;;;;5035059;28;20029;-70
2022/03/23 06:05:27;;;;;;;20.33;12.75;;;10.30;44.60;;;;;;5032330;28;20429;-69
2022/03/23 06:07:52;;;;;;;22.52;13.32;;;10.40;44.70;;;;;;5033197;28;20404;-68
2022/03/23 06:10:18;;;;;;;19.33;12.75;;;10.40;44.70;;;;;;5033085;28;20010;-69
2022/03/23 06:12:44;;;;;;;19.52;12.40;;;10.60;44.70;;;;;;5033294;28;20021;-69
2022/03/23 06:15:11;;;;;;;19.95;12.95;;;10.70;44.70;;;;;;5031802;28;20036;-68
2022/03/23 06:17:37;;;;;;;17.95;12.20;;;10.90;44.40;;;;;;5033872;28;20404;-68
2022/03/23 06:20:05;;;;;;;21.58;13.52;;;11.40;43.50;;;;;;5033764;28;20040;-69
2022/03/23 06:22:30;;;;;;;21.15;13.55;;;12.20;42.10;;;;;;5032596;28;20109;-69
2022/03/23 06:24:56;;;;;;;21.10;13.50;;;12.20;41.50;;;;;;5045621;28;20056;-71
2022/03/23 06:27:21;;;;;;;24.83;14.75;;;11.90;41.90;;;;;;5042715;28;20036;-69
2022/03/23 06:29:47;;;;;;;19.17;13.38;;;11.70;42.50;;;;;;5034310;28;20033;-69
2022/03/23 06:32:13;;;;;;;20.75;14.50;;;11.60;43.00;;;;;;5036565;28;20168;-69
2022/03/23 06:34:38;;;;;;;21.67;14.07;;;11.50;43.20;;;;;;5032502;28;20236;-69
2022/03/23 06:37:04;;;;;;;23.13;15.65;;;11.40;43.40;;;;;;5035907;28;20061;-69
2022/03/23 06:39:31;;;;;;;20.08;14.07;;;11.40;43.50;;;;;;5032877;28;20403;-69
2022/03/23 06:41:57;;;;;;;20.55;13.45;;;11.30;43.70;;;;;;5032168;28;20033;-69
2022/03/23 06:44:22;;;;;;;18.75;13.55;;;11.40;43.70;;;;;;5033181;28;20026;-69
2022/03/23 06:46:48;;;;;;;20.90;13.77;;;11.40;43.80;;;;;;5032860;28;20064;-69
2022/03/23 06:49:14;;;;;;;19.60;13.43;;;11.50;43.80;;;;;;5031994;28;20125;-69
2022/03/23 06:51:39;;;;;;;22.17;13.82;;;11.50;43.70;;;;;;5031387;28;20025;-69
2022/03/23 06:54:05;;;;;;;16.88;10.95;;;11.50;43.50;;;;;;5031615;28;20431;-69
2022/03/23 06:56:31;;;;;;;20.48;12.82;;;11.70;43.40;;;;;;5032066;28;20620;-69
2022/03/23 06:58:57;;;;;;;19.42;14.05;;;11.80;43.30;;;;;;5031993;28;20033;-69
2022/03/23 07:01:23;;;;;;;19.95;13.25;;;11.90;43.10;;;;;;5032288;28;20026;-70
2022/03/23 07:03:48;;;;;;;18.35;12.45;;;12.00;43.00;;;;;;5031807;28;20100;-69
2022/03/23 07:06:16;;;;;;;17.73;11.77;;;12.10;42.90;;;;;;5031608;28;20101;-69
2022/03/23 07:11:27;;;;;;;18.17;11.35;;;12.20;42.60;;;;;;5031887;28;20411;-67
2022/03/23 07:13:53;;;;;;;17.13;11.50;;;12.40;42.50;;;;;;5031971;28;20033;-68
2022/03/23 07:16:18;;;;;;;17.58;10.52;;;12.50;42.40;;;;;;5031750;28;20087;-68
2022/03/23 07:18:44;;;;;;;16.42;10.68;;;12.60;42.20;;;;;;5030435;28;20029;-69
2022/03/23 07:21:10;;;;;;;17.88;11.98;;;12.70;42.20;;;;;;5030279;28;20049;-68
2022/03/23 07:23:36;;;;;;;17.17;10.45;;;12.80;42.10;;;;;;5030244;28;20040;-68
2022/03/23 07:26:02;;;;;;;14.77;10.65;;;12.90;42.00;;;;;;5031094;28;20057;-69
2022/03/23 07:28:28;;;;;;;19.58;12.60;;;13.00;41.90;;;;;;5031073;28;20030;-68
2022/03/23 07:30:55;;;;;;;19.95;13.32;;;13.00;41.60;;;;;;5030374;28;20018;-68
2022/03/23 07:33:21;;;;;;;19.90;13.10;;;13.10;41.60;;;;;;5020659;28;20041;-67
2022/03/23 07:35:47;;;;;;;15.88;11.07;;;13.20;41.50;;;;;;5030261;28;20065;-67
2022/03/23 07:38:12;;;;;;;16.48;11.07;;;13.20;41.50;;;;;;5030326;28;20044;-68
2022/03/23 07:40:38;;;;;;;19.05;12.25;;;13.40;41.40;;;;;;5028251;28;20460;-68
2022/03/23 07:43:04;;;;;;;16.08;10.88;;;13.50;41.30;;;;;;5028034;28;20048;-68
2022/03/23 07:45:30;;;;;;;20.77;13.27;;;13.60;41.20;;;;;;5030775;28;20749;-68
2022/03/23 07:47:56;;;;;;;20.20;13.95;;;13.70;40.90;;;;;;5026918;28;20030;-68
2022/03/23 07:50:21;;;;;;;21.98;15.18;;;13.80;40.80;;;;;;5028119;28;20040;-68
2022/03/23 07:52:48;;;;;;;19.33;13.38;;;13.80;40.40;;;;;;5025471;28;20096;-68
2022/03/23 07:55:13;;;;;;;17.55;13.45;;;13.90;40.40;;;;;;5028434;28;20486;-69
2022/03/23 07:57:39;;;;;;;16.30;11.65;;;14.00;40.20;;;;;;5030368;28;20030;-69
2022/03/23 08:00:05;;;;;;;18.65;12.75;;;14.10;40.30;;;;;;5030227;28;20029;-69
2022/03/23 08:02:31;;;;;;;19.27;13.63;;;14.10;39.90;;;;;;5029894;28;20026;-69
2022/03/23 08:04:57;;;;;;;16.63;11.75;;;14.20;39.70;;;;;;5031607;28;20035;-69
2022/03/23 08:07:22;;;;;;;15.60;11.27;;;14.30;39.70;;;;;;5030928;28;20104;-69
2022/03/23 08:09:48;;;;;;;17.83;13.27;;;14.50;39.70;;;;;;5031506;28;20049;-69
2022/03/23 08:12:16;;;;;;;15.90;11.02;;;14.60;39.50;;;;;;5030282;28;20033;-69
2022/03/23 08:14:46;;;;;;;19.27;13.13;;;14.60;39.50;;;;;;5029839;28;20060;-69
2022/03/23 08:17:12;;;;;;;19.58;13.80;;;14.70;39.60;;;;;;5030189;28;20053;-69
2022/03/23 08:19:38;;;;;;;18.45;12.75;;;14.80;39.50;;;;;;5027267;28;20041;-69
2022/03/23 08:22:03;;;;;;;16.20;12.10;;;14.90;39.70;;;;;;5032666;28;20044;-69
2022/03/23 08:24:29;;;;;;;19.90;13.38;;;14.90;39.50;;;;;;5032422;28;20508;-69
2022/03/23 08:26:54;;;;;;;21.30;14.93;;;14.90;39.20;;;;;;5026783;28;20030;-69
2022/03/23 08:29:21;;;;;;;16.67;12.40;;;15.00;39.20;;;;;;5037978;28;20087;-68
2022/03/23 08:31:46;;;;;;;21.92;14.90;;;15.10;39.00;;;;;;5027760;28;20021;-68
2022/03/23 08:34:12;;;;;;;21.45;14.93;;;15.10;38.90;;;;;;5028122;28;20025;-68
2022/03/23 08:36:38;;;;;;;17.73;12.18;;;15.10;38.60;;;;;;5024979;28;20041;-68
2022/03/23 08:39:05;;;;;;;15.38;10.93;;;15.20;38.70;;;;;;5035186;28;20446;-68
2022/03/23 08:41:31;;;;;;;18.63;13.55;;;15.30;38.70;;;;;;5026218;28;20036;-67
2022/03/23 08:43:57;;;;;;;18.48;13.90;;;15.30;38.60;;;;;;5030447;28;20033;-68
2022/03/23 08:46:23;;;;;;;22.52;17.05;;;15.40;38.20;;;;;;5025157;28;20022;-68
2022/03/23 08:48:49;;;;;;;19.48;14.07;;;15.40;37.20;;;;;;5027661;28;20034;-68
2022/03/23 08:51:16;;;;;;;24.67;16.80;;;15.40;37.60;;;;;;5024884;28;20493;-68
2022/03/23 08:53:42;;;;;;;21.60;16.15;;;15.50;37.10;;;;;;5028168;28;20022;-68
2022/03/23 08:56:11;;;;;;;20.35;14.52;;;15.50;37.30;;;;;;5022965;28;20529;-67
2022/03/23 08:58:47;;;;;;;19.30;14.13;;;15.60;37.60;;;;;;5028566;28;20442;-68
2022/03/23 09:01:14;;;;;;;17.20;12.30;;;15.70;37.90;;;;;;5027236;28;20561;-69
2022/03/23 09:03:40;;;;;;;19.08;13.05;;;15.80;38.00;;;;;;5026273;28;20056;-68
2022/03/23 09:06:06;;;;;;;20.55;14.40;;;15.90;38.10;;;;;;5029346;28;20075;-69
2022/03/23 09:08:32;;;;;;;21.38;15.25;;;15.90;38.00;;;;;;5020335;28;20033;-67
2022/03/23 09:10:59;;;;;;;18.67;13.65;;;15.90;38.10;;;;;;5029691;28;20029;-69
2022/03/23 09:13:25;;;;;;;20.05;12.90;;;16.10;38.80;;;;;;5027124;28;20480;-68
2022/03/23 09:15:50;;;;;;;21.92;14.75;;;16.10;38.70;;;;;;5023568;28;20022;-68
2022/03/23 09:18:16;;;;;;;18.58;12.82;;;16.20;38.00;;;;;;5025678;28;20037;-68
2022/03/23 09:20:41;;;;;;;25.70;17.73;;;16.20;38.00;;;;;;5022470;28;20076;-69
2022/03/23 09:23:08;;;;;;;22.67;16.35;;;16.20;37.70;;;;;;5027554;28;20389;-68
2022/03/23 09:25:33;;;;;;;22.23;16.30;;;16.30;37.80;;;;;;5020599;28;20026;-68
2022/03/23 09:27:59;;;;;;;20.05;15.52;;;16.30;37.60;;;;;;5023307;28;20498;-69
2022/03/23 09:30:24;;;;;;;20.60;15.25;;;16.40;37.80;;;;;;5023977;28;20101;-69
2022/03/23 09:32:50;;;;;;;20.25;15.60;;;16.50;37.70;;;;;;5025893;28;20034;-69
2022/03/23 09:35:17;;;;;;;23.83;17.67;;;16.60;37.70;;;;;;5026751;28;20101;-69
2022/03/23 09:37:49;;;;;;;22.77;16.05;;;16.60;36.20;;;;;;5024478;28;20033;-70
2022/03/23 09:40:19;;;;;;;;;;;16.50;36.10;;;;;;5027709;28;20038;-68
2022/03/23 09:42:45;;;;;;;25.27;17.92;;;16.60;36.40;;;;;;5020853;28;20015;-69
2022/03/23 09:45:19;;;;;;;22.33;15.60;;;16.60;36.00;;;;;;5027772;28;20524;-69
2022/03/23 09:47:45;;;;;;;22.40;15.82;;;16.60;35.50;;;;;;5029647;28;20646;-69
2022/03/23 09:50:11;;;;;;;22.55;16.60;;;16.70;35.40;;;;;;5029822;28;20048;-68
2022/03/23 09:52:38;;;;;;;19.58;14.32;;;16.70;34.80;;;;;;5027323;28;20033;-70
2022/03/23 09:55:04;;;;;;;22.27;17.15;;;16.80;35.00;;;;;;5027765;28;20034;-68
2022/03/23 09:57:30;;;;;;;25.02;18.60;;;16.80;34.10;;;;;;5043824;28;20022;-69
2022/03/23 09:59:55;;;;;;;24.08;17.23;;;16.80;34.00;;;;;;5026708;28;20041;-69
2022/03/23 10:02:57;;;;;;;24.27;17.80;;;16.70;32.90;;;;;;5026006;28;20029;-69
2022/03/23 10:05:57;;;;;;;21.10;15.77;;;16.70;32.20;;;;;;5030870;28;20055;-69
2022/03/23 10:08:47;;;;;;;24.70;16.77;;;16.70;32.80;;;;;;5024782;28;20029;-69
2022/03/23 10:11:58;;;;;;;21.90;15.95;;;16.80;32.70;;;;;;5027513;28;20025;-69
2022/03/23 10:15:07;;;;;;;20.48;14.73;;;16.90;32.50;;;;;;5034576;28;20367;-67
2022/03/23 10:18:07;;;;;;;23.30;16.63;;;17.00;31.80;;;;;;5023928;28;20029;-67
2022/03/23 10:20:32;;;;;;;22.17;15.55;;;17.00;32.00;;;;;;5024676;28;20028;-65
2022/03/23 10:22:58;;;;;;;19.30;14.43;;;17.10;32.20;;;;;;5024729;28;20030;-67
2022/03/23 10:25:27;;;;;;;22.52;16.17;;;17.20;32.40;;;;;;5024763;28;20097;-66
2022/03/23 10:27:54;;;;;;;22.48;16.70;;;17.20;32.30;;;;;;5023350;28;20403;-68
2022/03/23 10:30:31;;;;;;;23.10;16.90;;;17.30;31.60;;;;;;5026430;28;20088;-69
2022/03/23 10:32:56;;;;;;;23.25;16.77;;;17.30;31.30;;;;;;5029783;28;20030;-68
2022/03/23 10:35:22;;;;;;;17.33;13.32;;;17.40;31.80;;;;;;5019739;28;20028;-68
2022/03/23 10:37:48;;;;;;;17.00;12.77;;;17.40;31.70;;;;;;5022030;28;21983;-64
2022/03/23 10:40:18;;;;;;;18.08;13.93;;;17.40;31.50;;;;;;5020305;28;20029;-65
2022/03/23 10:42:45;;;;;;;19.13;13.90;;;17.50;31.10;;;;;;5023121;28;20079;-65
2022/03/23 10:45:17;;;;;;;19.30;13.95;;;17.60;31.20;;;;;;5027102;28;20087;-67
2022/03/23 10:47:44;;;;;;;21.13;13.60;;;17.60;30.90;;;;;;5022280;28;20033;-67
2022/03/23 10:50:15;;;;;;;19.92;14.10;;;17.70;30.40;;;;;;5030965;28;20475;-67
2022/03/23 10:53:01;;;;;;;18.77;13.93;;;17.70;30.30;;;;;;5029785;28;20024;-67
2022/03/23 10:55:28;;;;;;;20.25;14.93;;;17.80;30.00;;;;;;5027723;28;20025;-67
2022/03/23 10:58:17;;;;;;;18.73;14.18;;;17.70;29.80;;;;;;5027075;28;20025;-67
2022/03/23 11:00:42;;;;;;;20.30;13.95;;;17.80;29.80;;;;;;5026991;28;20039;-68
2022/03/23 11:03:09;;;;;;;22.85;16.13;;;17.80;29.80;;;;;;5030802;28;20564;-67
2022/03/23 11:05:47;;;;;;;19.58;14.55;;;17.80;30.00;;;;;;5033971;28;20369;-67
2022/03/23 11:08:21;;;;;;;22.48;15.85;;;17.80;30.10;;;;;;5027324;28;20021;-68
2022/03/23 11:16:34;;;;;;;18.70;14.52;;;17.90;30.10;;;;;;5033062;28;20043;-67
2022/03/23 11:19:15;;;;;;;22.98;14.23;;;18.10;30.30;;;;;;5033017;28;20021;-67
2022/03/23 11:22:05;;;;;;;17.13;12.75;;;18.00;29.70;;;;;;5029861;28;20033;-69
2022/03/23 11:24:38;;;;;;;17.65;12.23;;;17.90;29.90;;;;;;5036091;28;20112;-67
2022/03/23 11:27:17;;;;;;;18.00;12.98;;;18.10;30.00;;;;;;5037862;28;20064;-67
2022/03/23 11:29:43;;;;;;;19.20;14.40;;;18.10;29.90;;;;;;5042425;28;21517;-68
2022/03/23 11:32:24;;;;;;;17.40;13.00;;;18.10;30.20;;;;;;5042389;28;20100;-65
2022/03/23 11:34:51;;;;;;;16.23;12.07;;;18.10;29.50;;;;;;5033558;28;20049;-68
2022/03/23 11:37:19;;;;;;;16.85;11.15;;;18.10;29.40;;;;;;5030429;28;20032;-67
2022/03/23 11:39:46;;;;;;;16.90;9.88;;;18.20;28.50;;;;;;5037392;28;20462;-67
2022/03/23 11:42:13;;;;;;;14.48;9.80;;;18.20;28.50;;;;;;5032354;28;20503;-68
2022/03/23 11:44:40;;;;;;;19.85;14.60;;;18.30;27.10;;;;;;5032035;28;20033;-68
2022/03/23 11:47:28;;;;;;;19.02;12.20;;;18.30;28.80;;;;;;5028907;28;20025;-67
2022/03/23 11:50:14;;;;;;;16.10;9.88;;;18.40;29.20;;;;;;5037771;28;20104;-67
2022/03/23 11:52:59;;;;;;;15.93;11.75;;;18.50;28.50;;;;;;5053481;28;20097;-67
2022/03/23 11:55:45;;;;;;;12.65;8.40;;;18.70;29.00;;;;;;5031388;28;20057;-68
2022/03/23 11:58:23;;;;;;;16.38;10.82;;;18.90;28.30;;;;;;5033990;28;20216;-65
2022/03/23 12:00:52;;;;;;;16.67;10.30;;;18.90;27.90;;;;;;5028110;28;20673;-68
2022/03/23 12:03:58;;;;;;;17.30;11.00;;;19.00;28.20;;;;;;5032093;28;20155;-67
2022/03/23 12:06:39;;;;;;;13.85;9.77;;;19.10;28.40;;;;;;5016399;28;20052;-66
2022/03/23 12:09:05;;;;;;;16.50;10.18;;;19.20;27.90;;;;;;5034898;28;20113;-68
2022/03/23 12:11:37;;;;;;;14.85;9.05;;;19.30;27.80;;;;;;5023660;28;20844;-68
2022/03/23 12:14:06;;;;;;;8.57;6.45;;;19.40;27.00;;;;;;5030889;28;20029;-68
2022/03/23 12:16:47;;;;;;;16.00;8.50;;;19.50;27.50;;;;;;5033518;28;20060;-68
2022/03/23 12:19:22;;;;;;;14.90;9.65;;;19.50;27.00;;;;;;5029740;28;20040;-67
2022/03/23 12:22:06;;;;;;;12.98;9.23;;;19.70;27.60;;;;;;5030001;28;20091;-68
2022/03/23 12:24:43;;;;;;;13.90;7.00;;;19.80;27.40;;;;;;5031432;28;20034;-69
2022/03/23 12:27:50;;;;;;;15.50;9.60;;;19.80;26.60;;;;;;5032304;28;20024;-68
2022/03/23 12:30:31;;;;;;;14.98;9.07;;;19.90;26.90;;;;;;5036318;28;20500;-69
2022/03/23 12:32:58;;;;;;;19.48;10.77;;;20.10;27.50;;;;;;5035878;28;20052;-68
2022/03/23 12:35:34;;;;;;;13.13;8.15;;;20.30;27.80;;;;;;5039958;28;20024;-68
2022/03/23 12:38:02;;;;;;;14.73;8.15;;;20.50;27.70;;;;;;5030477;28;20060;-69
2022/03/23 12:40:43;;;;;;;15.30;8.13;;;20.50;27.30;;;;;;5038762;28;20056;-69
2022/03/23 12:43:08;;;;;;;15.23;8.98;;;20.40;27.00;;;;;;5035018;28;20021;-69
2022/03/23 12:45:39;;;;;;;14.10;7.40;;;20.50;27.20;;;;;;5025899;28;20026;-68
2022/03/23 12:59:19;;;;;;;13.02;5.88;;;20.90;26.70;;;;;;5031941;28;20079;-67
2022/03/23 13:01:46;;;;;;;16.52;5.78;;;20.90;27.00;;;;;;5040799;28;20020;-68
2022/03/23 13:04:40;;;;;;;9.77;4.90;;;21.10;27.10;;;;;;5037224;28;20108;-69
2022/03/23 13:07:27;;;;;;;18.05;7.63;;;21.20;27.20;;;;;;5045147;28;20036;-66